AirNav   Everest Fuels
 
 408 users online  

61TX Traylor Tick Farm Airport
Bellville, Texas, USA

GOING TO BELLVILLE?


FAA INFORMATION EFFECTIVE 16 JULY 2020

Location

FAA Identifier: 61TX
Lat/Long: 29-58-20.8070N 096-18-25.8730W
29-58.346783N 096-18.431217W
29.9724464,-96.3071869
(estimated)
Elevation: 250 ft. / 76 m (estimated)
Variation: 06E (1985)
From city: 3 miles NW of BELLVILLE, TX
Time zone: UTC -5 (UTC -6 during Standard Time)
Zip code: 77418

Airport Operations

Airport use: Private use. Permission required prior to landing
Activation date: 04/1977
Control tower: no
ARTCC: HOUSTON CENTER
FSS: MONTGOMERY COUNTY FLIGHT SERVICE STATION
FOR FP FILING CALL CXO FSS 1-800-833-5602.
Attendance: UNATNDD
Wind indicator: yes
Segmented circle: no

Airport Communications

WX AWOS-3 at 11R (15 nm N): 121.125 (979-836-2303)

Nearby radio navigation aids

VOR radial/distance  VOR name  Freq  Var
IDUr078/13.3INDUSTRY VORTAC110.2008E
ELAr354/18.6EAGLE LAKE VOR/DME116.4008E
TNVr206/22.9NAVASOTA VOR/DME115.9008E
CLLr163/38.4COLLEGE STATION VORTAC113.3008E

Airport Services

Runway Information

Runway 2/20

Dimensions: 1800 x 80 ft. / 549 x 24 m
Surface: turf
RUNWAY 2  RUNWAY 20
Traffic pattern: leftleft
Obstructions: nonetrees

Airport Ownership and Management from official FAA records

Ownership: Privately-owned
Owner: THOMAS M TRAYLOR
PO BOX 804
BELLEVILLE, TX 77418
Phone 979-830-3578
Manager: THOMAS M TRAYLOR
PO BOX 804
BELLEVILLE, TX 77418
Phone 979-830-3578
SPECIALIZED DISTRIBUTING

Airport Operational Statistics

Aircraft based on the field: 2
Single engine airplanes: 2
    

Additional Remarks

FOR CD CTC HOUSTON APCH AT 281-443-5844.

Instrument Procedures

There are no published instrument procedures at 61TX.

Some nearby airports with instrument procedures:

11R - Brenham Municipal Airport (15 nm N)
KELA - Eagle Lake Airport (22 nm S)
KTME - Houston Executive Airport (24 nm SE)
60R - Navasota Municipal Airport (26 nm NE)
3T5 - Fayette Regional Air Center Airport (34 nm W)
 
Loc | Ops | Rwys | IFR | FBO | Links
Com | Nav | Svcs | Stats | Notes
Area around 61TX (Traylor Tick Farm Airport)
 
Road maps at: MapQuest Bing Google
 
Aerial photo
No photo
 
Sectional chart

 
Airport distance calculator
Flying to Traylor Tick Farm Airport? Find the distance to fly.

From to 61TX

Sunrise and sunset
Times for 10-Aug-2020
 Local
(UTC-5)
 Zulu
(UTC)
Morning civil twilight06:2611:26
Sunrise06:5111:51
Sunset20:1001:10
Evening civil twilight20:3501:35

Current date and time
Zulu (UTC)  10-Aug-2020 08:41:47
Local (UTC-5)  10-Aug-2020 03:41:47
 
METAR
K11R 
15nm N 
100815Z AUTO 16003KT 10SM CLR 25/25 A3006 RMK AO2 T02540246
KELA 
22nm S 
100815Z AUTO 00000KT 7SM CLR 25/25 A3005 RMK AO2 T02530245
K66R 
23nm SW 
100815Z AUTO 17003KT 10SM CLR 25/24 A3006 RMK AO2 T02450240
KTME 
24nm SE 
100815Z AUTO 16004KT 8SM CLR 25/25 A3006 RMK AO2
TAF
KCLL 
37nm N 
100520Z 1006/1106 17006KT P6SM SKC FM101100 17004KT P6SM BKN015 FM101500 19010KT P6SM SCT030 FM101800 17011KT P6SM FEW050
KSGR 
40nm SE 
100520Z 1006/1106 17005KT P6SM SKC FM101300 17005KT P6SM SCT025 FM101500 19008KT P6SM SCT040 FM101900 17011KT P6SM VCSH FEW050 FM110000 17009KT P6SM FEW250
NOTAMs
Click for the latest NOTAMs
NOTAMs are issued by the DoD/FAA and will open in a separate window not controlled by AirNav.

 

 
 

Would you like to see your business listed on this page?

 If your business provides an interesting product or service to pilots, flight crews, aircraft, or users of the Traylor Tick Farm Airport, you should consider listing it here.  To start the listing process, click on the button below
 
Add a business
 

Other Pages about Traylor Tick Farm Airport

Update a link
 
Copyright © AirNav, LLC. All rights reserved. Privacy Policy  Contact